Terminal Aerodrome Forecast
Issued by NWS

Home | Current Version | Previous Version | Text Only | Print | Product List | Glossary Off
Versions: 1 2 3 4 5 6 7 8 9 10 11 12 13 14

000
FTUS42 KMHX 170521
TAFISO
TAF
KISO 170521Z 1706/1806 31011G17KT P6SM OVC050
     FM170900 28007KT P6SM FEW250
     FM171500 27015G24KT P6SM FEW250
     FM172300 25008KT P6SM SKC
      AMD LTD TO CLD VIS AND WIND=

USA.gov is the U.S. government's official web portal to all federal, state and local government web resources and services.